Time;durP1;ratioP1;P1;durP2;ratioP2;P2;SDS_P1;SDS_P2;PMS_P1;PMS_P2;Temp;Humidity;BMP_temperature;BMP_pressure;BME280_temperature;BME280_humidity;BME280_pressure;Samples;Min_cycle;Max_cycle;Signal;HPM_P1;HPM_P2
2023/12/11 00:00:22;;;;;;;;;;;14.40;99.90;;;;;;5072736;28;19999;-78
2023/12/11 00:02:48;;;;;;;;;;;14.40;99.90;;;;;;5071400;28;19916;-79
2023/12/11 00:05:13;;;;;;;;;;;14.40;99.90;;;;;;5072638;28;19915;-80
2023/12/11 00:07:39;;;;;;;;;;;14.40;99.90;;;;;;5077723;28;19908;-78
2023/12/11 00:10:05;;;;;;;;;;;14.40;99.90;;;;;;5076900;28;19928;-77
2023/12/11 00:12:30;;;;;;;;;;;14.40;99.90;;;;;;5085961;28;19928;-76
2023/12/11 00:14:57;;;;;;;;;;;14.50;99.90;;;;;;5091863;28;19923;-78
2023/12/11 00:17:22;;;;;;;;;;;14.50;99.90;;;;;;5093236;28;19913;-77
2023/12/11 00:19:48;;;;;;;;;;;14.50;99.90;;;;;;5092368;28;19915;-77
2023/12/11 00:22:13;;;;;;;;;;;14.50;99.90;;;;;;5072668;28;20333;-77
2023/12/11 00:24:39;;;;;;;;;;;14.50;99.90;;;;;;5071244;28;19909;-77
2023/12/11 00:27:04;;;;;;;;;;;14.50;99.90;;;;;;5078319;28;19966;-79
2023/12/11 00:29:30;;;;;;;;;;;14.40;99.90;;;;;;5085046;28;19915;-78
2023/12/11 00:31:55;;;;;;;;;;;14.30;99.90;;;;;;5075960;28;20007;-80
2023/12/11 00:34:21;;;;;;;;;;;14.30;99.90;;;;;;5075990;28;19909;-80
2023/12/11 00:36:47;;;;;;;;;;;14.30;99.90;;;;;;5081892;28;19924;-81
2023/12/11 00:39:15;;;;;;;;;;;14.30;99.90;;;;;;5096508;28;19908;-78
2023/12/11 00:41:43;;;;;;;;;;;14.30;99.90;;;;;;5096608;28;19908;-81
2023/12/11 00:44:08;;;;;;;;;;;14.30;99.90;;;;;;5096117;28;20386;-78
2023/12/11 00:46:33;;;;;;;;;;;14.30;99.90;;;;;;5096081;28;19919;-77
2023/12/11 00:48:59;;;;;;;;;;;14.30;99.90;;;;;;5095644;28;19912;-77
2023/12/11 00:51:24;;;;;;;;;;;14.30;99.90;;;;;;5095367;28;20462;-77
2023/12/11 00:53:50;;;;;;;;;;;14.40;99.90;;;;;;5095939;28;20038;-77
2023/12/11 00:56:15;;;;;;;;;;;14.40;99.90;;;;;;5085722;28;20002;-80
2023/12/11 00:58:41;;;;;;;;;;;14.40;99.90;;;;;;5074257;28;20461;-77
2023/12/11 01:01:06;;;;;;;;;;;14.40;99.90;;;;;;5075584;28;19912;-76
2023/12/11 01:03:33;;;;;;;;;;;14.40;99.90;;;;;;5074547;28;19916;-77
2023/12/11 01:05:59;;;;;;;;;;;14.50;99.90;;;;;;5076810;28;19912;-77
2023/12/11 01:08:27;;;;;;;;;;;14.50;99.90;;;;;;5076173;28;19970;-79
2023/12/11 01:10:57;;;;;;;;;;;14.40;99.90;;;;;;5074982;28;19927;-79
2023/12/11 01:13:22;;;;;;;;;;;14.50;99.90;;;;;;5080563;28;19919;-79
2023/12/11 01:15:48;;;;;;;;;;;14.50;99.90;;;;;;5073989;28;19909;-80
2023/12/11 01:18:13;;;;;;;;;;;14.40;99.90;;;;;;5085196;28;19974;-77
2023/12/11 01:20:39;;;;;;;;;;;14.40;99.90;;;;;;5083845;28;19912;-79
2023/12/11 01:23:05;;;;;;;;;;;14.40;99.90;;;;;;5084052;28;19913;-80
2023/12/11 01:25:31;;;;;;;;;;;14.40;99.90;;;;;;5075465;28;19909;-79
2023/12/11 01:27:56;;;;;;;;;;;14.50;99.90;;;;;;5085298;28;19999;-77
2023/12/11 01:30:22;;;;;;;;;;;14.50;99.90;;;;;;5077045;28;20477;-76
2023/12/11 01:32:47;;;;;;;;;;;14.50;99.90;;;;;;5074870;28;19913;-79
2023/12/11 01:35:13;;;;;;;;;;;14.50;99.90;;;;;;5077094;28;20370;-79
2023/12/11 01:37:39;;;;;;;;;;;14.50;99.90;;;;;;5083481;28;20009;-78
2023/12/11 01:40:05;;;;;;;;;;;14.50;99.90;;;;;;5075154;28;19997;-79
2023/12/11 01:42:32;;;;;;;;;;;14.50;99.90;;;;;;5074477;28;20383;-77
2023/12/11 01:44:57;;;;;;;;;;;14.50;99.90;;;;;;5074801;28;19966;-77
2023/12/11 01:47:23;;;;;;;;;;;14.50;99.90;;;;;;5074542;28;19912;-77
2023/12/11 01:49:49;;;;;;;;;;;14.50;99.90;;;;;;5074545;28;19966;-80
2023/12/11 01:52:15;;;;;;;;;;;14.50;99.90;;;;;;5075001;28;19908;-86
2023/12/11 01:54:41;;;;;;;;;;;14.50;99.90;;;;;;5073121;28;19959;-83
2023/12/11 01:57:07;;;;;;;;;;;14.50;99.90;;;;;;5074329;28;19916;-78
2023/12/11 01:59:33;;;;;;;;;;;14.50;99.90;;;;;;5074507;28;19953;-78
2023/12/11 02:01:59;;;;;;;;;;;14.50;99.90;;;;;;5074293;28;19908;-77
2023/12/11 02:04:24;;;;;;;;;;;14.50;99.90;;;;;;5072963;28;19909;-77
2023/12/11 02:06:50;;;;;;;;;;;14.50;99.90;;;;;;5082430;28;19915;-77
2023/12/11 02:09:16;;;;;;;;;;;14.60;99.90;;;;;;5094530;28;20386;-77
2023/12/11 02:11:42;;;;;;;;;;;14.60;99.90;;;;;;5085045;28;19927;-77
2023/12/11 02:14:08;;;;;;;;;;;14.60;99.90;;;;;;5078602;28;19956;-77
2023/12/11 02:16:33;;;;;;;;;;;14.70;99.90;;;;;;5094300;28;19990;-77
2023/12/11 02:18:59;;;;;;;;;;;14.70;99.90;;;;;;5094534;28;19911;-77
2023/12/11 02:21:24;;;;;;;;;;;14.70;99.90;;;;;;5079151;28;19931;-77
2023/12/11 02:24:00;;;;;;;;;;;14.70;99.90;;;;;;5073826;28;19913;-77
2023/12/11 02:26:26;;;;;;;;;;;14.70;99.90;;;;;;5075427;28;19921;-78
2023/12/11 02:28:52;;;;;;;;;;;14.70;99.90;;;;;;5083546;28;19915;-77
2023/12/11 02:31:17;;;;;;;;;;;14.70;99.90;;;;;;5080854;28;19909;-77
2023/12/11 02:33:43;;;;;;;;;;;14.70;99.90;;;;;;5073835;28;19908;-78
2023/12/11 02:36:08;;;;;;;;;;;14.80;99.90;;;;;;5072876;28;19908;-77
2023/12/11 02:38:34;;;;;;;;;;;14.70;99.90;;;;;;5093588;28;19916;-77
2023/12/11 02:40:59;;;;;;;;;;;14.80;99.90;;;;;;5094042;28;19908;-78
2023/12/11 02:43:25;;;;;;;;;;;14.80;99.90;;;;;;5094109;28;20295;-79
2023/12/11 02:45:50;;;;;;;;;;;14.80;99.90;;;;;;5093873;28;20330;-77
2023/12/11 02:48:16;;;;;;;;;;;14.80;99.90;;;;;;5092490;28;19991;-76
2023/12/11 02:50:41;;;;;;;;;;;14.80;99.90;;;;;;5093113;28;19912;-78
2023/12/11 02:53:07;;;;;;;;;;;14.80;99.90;;;;;;5092321;28;19908;-77
2023/12/11 02:55:32;;;;;;;;;;;14.80;99.90;;;;;;5091261;28;19915;-77
2023/12/11 02:57:59;;;;;;;;;;;14.90;99.90;;;;;;5073106;28;19917;-76
2023/12/11 03:00:25;;;;;;;;;;;14.80;99.90;;;;;;5073435;28;19915;-77
2023/12/11 03:02:50;;;;;;;;;;;14.80;99.90;;;;;;5073509;28;19909;-77
2023/12/11 03:05:16;;;;;;;;;;;14.80;99.90;;;;;;5072585;28;20433;-77
2023/12/11 03:07:41;;;;;;;;;;;14.80;99.90;;;;;;5085444;28;19916;-78
2023/12/11 03:10:07;;;;;;;;;;;14.80;99.90;;;;;;5093543;28;19912;-76
2023/12/11 03:12:32;;;;;;;;;;;14.80;99.90;;;;;;5079602;28;19978;-78
2023/12/11 03:14:58;;;;;;;;;;;14.80;99.90;;;;;;5073397;28;19951;-77
2023/12/11 03:17:23;;;;;;;;;;;14.70;99.90;;;;;;5083146;28;19912;-80
2023/12/11 03:19:49;;;;;;;;;;;14.80;99.90;;;;;;5093411;28;19916;-79
2023/12/11 03:22:14;;;;;;;;;;;14.80;99.90;;;;;;5093023;28;20393;-78
2023/12/11 03:24:40;;;;;;;;;;;14.80;99.90;;;;;;5093245;28;20049;-77
2023/12/11 03:27:05;;;;;;;;;;;14.80;99.90;;;;;;5086015;28;19960;-77
2023/12/11 03:29:31;;;;;;;;;;;14.90;99.90;;;;;;5081989;28;19962;-77
2023/12/11 03:31:56;;;;;;;;;;;14.90;99.90;;;;;;5084791;28;20000;-77
2023/12/11 03:34:22;;;;;;;;;;;14.90;99.90;;;;;;5093142;28;20366;-76
2023/12/11 03:36:47;;;;;;;;;;;14.90;99.90;;;;;;5085046;28;19919;-78
2023/12/11 03:39:13;;;;;;;;;;;14.90;99.90;;;;;;5072905;28;19915;-77
2023/12/11 03:41:38;;;;;;;;;;;14.90;99.90;;;;;;5073362;28;19962;-78
2023/12/11 03:44:04;;;;;;;;;;;14.90;99.90;;;;;;5073132;28;19965;-80
2023/12/11 03:46:29;;;;;;;;;;;14.90;99.90;;;;;;5072867;28;19909;-80
2023/12/11 03:48:55;;;;;;;;;;;14.80;99.90;;;;;;5073351;28;19908;-80
2023/12/11 03:51:20;;;;;;;;;;;14.90;99.90;;;;;;5072720;28;19913;-77
2023/12/11 03:53:46;;;;;;;;;;;14.80;99.90;;;;;;5072961;28;19920;-80
2023/12/11 03:56:11;;;;;;;;;;;14.80;99.90;;;;;;5072791;28;19915;-80
2023/12/11 03:58:37;;;;;;;;;;;14.80;99.90;;;;;;5072652;28;19912;-79
2023/12/11 04:01:02;;;;;;;;;;;14.80;99.90;;;;;;5073342;28;20401;-80
2023/12/11 04:03:28;;;;;;;;;;;14.70;99.90;;;;;;5076808;28;19908;-77
2023/12/11 04:05:54;;;;;;;;;;;14.80;99.90;;;;;;5075869;28;19909;-77
2023/12/11 04:08:19;;;;;;;;;;;14.70;99.90;;;;;;5082215;28;19955;-80
2023/12/11 04:10:45;;;;;;;;;;;14.70;99.90;;;;;;5076364;28;19923;-80
2023/12/11 04:13:10;;;;;;;;;;;14.70;99.90;;;;;;5082165;28;19913;-79
2023/12/11 04:15:36;;;;;;;;;;;14.70;99.90;;;;;;5076437;28;19913;-80
2023/12/11 04:18:01;;;;;;;;;;;14.60;99.90;;;;;;5091572;28;19938;-80
2023/12/11 04:20:27;;;;;;;;;;;14.60;99.90;;;;;;5096427;28;19912;-78
2023/12/11 04:22:52;;;;;;;;;;;14.60;99.90;;;;;;5096384;28;19908;-79
2023/12/11 04:25:18;;;;;;;;;;;14.60;99.90;;;;;;5096841;28;19908;-78
2023/12/11 04:27:43;;;;;;;;;;;14.60;99.90;;;;;;5087060;28;19913;-77
2023/12/11 04:30:09;;;;;;;;;;;14.60;99.90;;;;;;5088248;28;20286;-76
2023/12/11 04:32:34;;;;;;;;;;;14.60;99.90;;;;;;5075678;28;19924;-78
2023/12/11 04:35:00;;;;;;;;;;;14.60;99.90;;;;;;5075986;28;19962;-76
2023/12/11 04:37:25;;;;;;;;;;;14.60;99.90;;;;;;5087428;28;19939;-79
2023/12/11 04:39:51;;;;;;;;;;;14.60;99.90;;;;;;5096683;28;19908;-79
2023/12/11 04:42:16;;;;;;;;;;;14.60;99.90;;;;;;5096208;28;20380;-77
2023/12/11 04:44:42;;;;;;;;;;;14.60;99.90;;;;;;5096232;28;20058;-77
2023/12/11 04:47:07;;;;;;;;;;;14.70;99.90;;;;;;5096059;28;19908;-79
2023/12/11 04:49:33;;;;;;;;;;;14.70;99.90;;;;;;5096257;28;19915;-79
2023/12/11 04:51:59;;;;;;;;;;;14.70;99.90;;;;;;5096356;28;20453;-79
2023/12/11 04:54:25;;;;;;;;;;;14.70;99.90;;;;;;5096090;28;20263;-79
2023/12/11 04:56:50;;;;;;;;;;;14.80;99.90;;;;;;5082397;28;19973;-79
2023/12/11 04:59:16;;;;;;;;;;;14.80;99.90;;;;;;5075428;28;19917;-77
2023/12/11 05:01:41;;;;;;;;;;;14.70;99.90;;;;;;5075586;28;19908;-78
2023/12/11 05:04:07;;;;;;;;;;;14.80;99.90;;;;;;5075386;28;19908;-78
2023/12/11 05:06:32;;;;;;;;;;;14.80;99.90;;;;;;5075942;28;19912;-79
2023/12/11 05:08:58;;;;;;;;;;;14.80;99.90;;;;;;5075391;28;19962;-77
2023/12/11 05:11:23;;;;;;;;;;;14.80;99.90;;;;;;5075359;28;19920;-76
2023/12/11 05:13:49;;;;;;;;;;;14.80;99.90;;;;;;5074841;28;19913;-78
2023/12/11 05:16:14;;;;;;;;;;;14.90;99.90;;;;;;5091493;28;20343;-78
2023/12/11 05:18:40;;;;;;;;;;;14.80;99.90;;;;;;5075201;28;19918;-79
2023/12/11 05:21:09;;;;;;;;;;;14.80;99.90;;;;;;5086398;28;19978;-77
2023/12/11 05:23:35;;;;;;;;;;;14.90;99.90;;;;;;5080409;28;19908;-77
2023/12/11 05:26:00;;;;;;;;;;;14.90;99.90;;;;;;5082610;28;19916;-77
2023/12/11 05:28:26;;;;;;;;;;;14.80;99.90;;;;;;5086391;28;19920;-80
2023/12/11 05:30:51;;;;;;;;;;;14.80;99.90;;;;;;5071939;28;19978;-79
2023/12/11 05:33:17;;;;;;;;;;;14.80;99.90;;;;;;5075104;28;19909;-78
2023/12/11 05:35:42;;;;;;;;;;;14.80;99.90;;;;;;5073484;28;19908;-77
2023/12/11 05:38:08;;;;;;;;;;;14.70;99.90;;;;;;5073657;28;19923;-78
2023/12/11 05:40:33;;;;;;;;;;;14.70;99.90;;;;;;5074709;28;19922;-80
2023/12/11 05:42:59;;;;;;;;;;;14.70;99.90;;;;;;5074755;28;19957;-79
2023/12/11 05:45:25;;;;;;;;;;;14.70;99.90;;;;;;5074654;28;19956;-79
2023/12/11 05:47:51;;;;;;;;;;;14.70;99.90;;;;;;5074786;28;19909;-79
2023/12/11 05:50:17;;;;;;;;;;;14.70;99.90;;;;;;5074649;28;20019;-77
2023/12/11 05:52:42;;;;;;;;;;;14.60;99.90;;;;;;5074573;28;19962;-78
2023/12/11 05:55:08;;;;;;;;;;;14.60;99.90;;;;;;5073097;28;20272;-79
2023/12/11 05:57:33;;;;;;;;;;;14.60;99.90;;;;;;5074210;28;19912;-79
2023/12/11 05:59:59;;;;;;;;;;;14.70;99.90;;;;;;5074225;28;19909;-79
2023/12/11 06:02:25;;;;;;;;;;;14.60;99.90;;;;;;5079357;28;19932;-79
2023/12/11 06:04:51;;;;;;;;;;;14.70;99.90;;;;;;5085304;28;19912;-77
2023/12/11 06:07:17;;;;;;;;;;;14.70;99.90;;;;;;5087087;28;19913;-79
2023/12/11 06:09:42;;;;;;;;;;;14.70;99.90;;;;;;5073699;28;19912;-78
2023/12/11 06:12:09;;;;;;;;;;;14.70;99.90;;;;;;5073965;28;19924;-79
2023/12/11 06:14:38;;;;;;;;;;;14.70;99.90;;;;;;5074322;28;19962;-77
2023/12/11 06:17:03;;;;;;;;;;;14.70;99.90;;;;;;5081574;28;20014;-77
2023/12/11 06:19:31;;;;;;;;;;;14.80;99.90;;;;;;5093445;28;21453;-78
2023/12/11 06:21:57;;;;;;;;;;;14.80;99.90;;;;;;5093866;28;19916;-79
2023/12/11 06:24:22;;;;;;;;;;;14.70;99.90;;;;;;5077574;28;19966;-79
2023/12/11 06:26:48;;;;;;;;;;;14.80;99.90;;;;;;5079833;28;19916;-81
2023/12/11 06:29:13;;;;;;;;;;;14.70;99.90;;;;;;5083680;28;19978;-80
2023/12/11 06:31:39;;;;;;;;;;;14.60;99.90;;;;;;5072623;28;19920;-81
2023/12/11 06:34:05;;;;;;;;;;;14.60;99.90;;;;;;5072369;28;19919;-78
2023/12/11 06:36:31;;;;;;;;;;;14.50;99.90;;;;;;5072845;28;19913;-77
2023/12/11 06:38:56;;;;;;;;;;;14.40;99.90;;;;;;5072376;28;19973;-79
2023/12/11 06:41:22;;;;;;;;;;;14.50;99.90;;;;;;5073282;28;19908;-80
2023/12/11 06:43:48;;;;;;;;;;;14.50;99.90;;;;;;5073156;28;20252;-81
2023/12/11 06:46:14;;;;;;;;;;;14.50;99.90;;;;;;5073042;28;19909;-79
2023/12/11 06:48:39;;;;;;;;;;;14.50;99.90;;;;;;5072761;28;19912;-77
2023/12/11 06:51:05;;;;;;;;;;;14.50;99.90;;;;;;5073531;28;19920;-80
2023/12/11 06:53:30;;;;;;;;;;;14.60;99.90;;;;;;5071764;28;19920;-83
2023/12/11 06:55:56;;;;;;;;;;;14.60;99.90;;;;;;5072955;28;19934;-78
2023/12/11 06:58:21;;;;;;;;;;;14.60;99.90;;;;;;5080550;28;19916;-78
2023/12/11 07:00:47;;;;;;;;;;;14.60;99.90;;;;;;5081536;28;19938;-78
2023/12/11 07:03:12;;;;;;;;;;;14.60;99.90;;;;;;5072877;28;19912;-81
2023/12/11 07:05:40;;;;;;;;;;;14.60;99.90;;;;;;5072852;28;20031;-81
2023/12/11 07:08:06;;;;;;;;;;;14.60;99.90;;;;;;5077372;28;19920;-80
2023/12/11 07:10:31;;;;;;;;;;;14.60;99.90;;;;;;5081588;28;19913;-81
2023/12/11 07:12:57;;;;;;;;;;;14.60;99.90;;;;;;5069215;28;19927;-78
2023/12/11 07:15:22;;;;;;;;;;;14.60;99.90;;;;;;5072444;28;19995;-79
2023/12/11 07:17:48;;;;;;;;;;;14.60;99.90;;;;;;5072101;28;20031;-78
2023/12/11 07:20:13;;;;;;;;;;;14.60;99.90;;;;;;5072161;28;19913;-80
2023/12/11 07:22:39;;;;;;;;;;;14.60;99.90;;;;;;5071238;28;20306;-79
2023/12/11 07:25:04;;;;;;;;;;;14.60;99.90;;;;;;5072389;28;19912;-78
2023/12/11 07:27:30;;;;;;;;;;;14.60;99.90;;;;;;5083961;28;20011;-78
2023/12/11 07:29:55;;;;;;;;;;;14.60;99.90;;;;;;5079292;28;20393;-78
2023/12/11 07:32:21;;;;;;;;;;;14.60;99.90;;;;;;5088186;28;19912;-79
2023/12/11 07:34:46;;;;;;;;;;;14.60;99.90;;;;;;5077192;28;19913;-79
2023/12/11 07:37:12;;;;;;;;;;;14.60;99.90;;;;;;5076914;28;19922;-78
2023/12/11 07:39:38;;;;;;;;;;;14.60;99.90;;;;;;5076717;28;19936;-79
2023/12/11 07:42:04;;;;;;;;;;;14.60;99.90;;;;;;5079917;28;19934;-78
2023/12/11 07:44:29;;;;;;;;;;;14.60;99.90;;;;;;5093512;28;20371;-79
2023/12/11 07:46:55;;;;;;;;;;;14.60;99.90;;;;;;5074950;28;19932;-79
2023/12/11 07:49:20;;;;;;;;;;;14.50;99.90;;;;;;5075574;28;19914;-79
2023/12/11 07:51:46;;;;;;;;;;;14.50;99.90;;;;;;5075413;28;19935;-79
2023/12/11 07:54:12;;;;;;;;;;;14.40;99.90;;;;;;5082119;28;19923;-79
2023/12/11 07:56:37;;;;;;;;;;;14.40;99.90;;;;;;5066362;28;19913;-78
2023/12/11 07:59:03;;;;;;;;;;;14.30;99.90;;;;;;5074536;28;19912;-79
2023/12/11 08:01:29;;;;;;;;;;;14.40;99.90;;;;;;5078039;28;19916;-79
2023/12/11 08:03:55;;;;;;;;;;;14.40;99.90;;;;;;5076140;28;20019;-78
2023/12/11 08:06:20;;;;;;;;;;;14.40;99.90;;;;;;5074475;28;19998;-79
2023/12/11 08:08:46;;;;;;;;;;;14.50;99.90;;;;;;5077173;28;19927;-80
2023/12/11 08:11:19;;;;;;;;;;;14.40;99.90;;;;;;5075622;28;20303;-79
2023/12/11 08:13:44;;;;;;;;;;;14.40;99.90;;;;;;5073021;28;19917;-79
2023/12/11 08:16:10;;;;;;;;;;;14.40;99.90;;;;;;5074132;28;19913;-78
2023/12/11 08:18:36;;;;;;;;;;;14.40;99.90;;;;;;5075696;28;19977;-79
2023/12/11 08:21:02;;;;;;;;;;;14.40;99.90;;;;;;5073618;28;19908;-79
2023/12/11 08:23:27;;;;;;;;;;;14.30;99.90;;;;;;5080393;28;19917;-79
2023/12/11 08:25:53;;;;;;;;;;;14.30;99.90;;;;;;5073306;28;19920;-80
2023/12/11 08:28:18;;;;;;;;;;;14.30;99.90;;;;;;5077273;28;20310;-79
2023/12/11 08:30:44;;;;;;;;;;;14.20;99.90;;;;;;5074237;28;19909;-79
2023/12/11 08:33:10;;;;;;;;;;;14.20;99.90;;;;;;5085016;28;19994;-79
2023/12/11 08:35:35;;;;;;;;;;;14.10;99.90;;;;;;5090129;28;20057;-80
2023/12/11 08:38:01;;;;;;;;;;;14.10;99.90;;;;;;5079545;28;20006;-80
2023/12/11 08:40:26;;;;;;;;;;;14.20;99.90;;;;;;5075476;28;19912;-80
2023/12/11 08:42:52;;;;;;;;;;;14.20;99.90;;;;;;5080799;28;19912;-80
2023/12/11 08:45:18;;;;;;;;;;;14.20;99.90;;;;;;5082615;28;19915;-79
2023/12/11 08:47:44;;;;;;;;;;;14.20;99.90;;;;;;5073571;28;19913;-79
2023/12/11 08:50:10;;;;;;;;;;;14.30;99.90;;;;;;5080803;28;19963;-81
2023/12/11 08:52:36;;;;;;;;;;;14.40;99.90;;;;;;5077571;28;20413;-81
2023/12/11 08:55:02;;;;;;;;;;;14.40;99.90;;;;;;5077898;28;19923;-79
2023/12/11 08:57:28;;;;;;;;;;;14.40;99.90;;;;;;5085399;28;19924;-80
2023/12/11 08:59:54;;;;;;;;;;;14.50;99.90;;;;;;5072862;28;20035;-80
2023/12/11 09:02:19;;;;;;;;;;;14.50;99.90;;;;;;5089724;28;20430;-81
2023/12/11 09:04:45;;;;;;;;;;;14.50;99.90;;;;;;5076795;28;20375;-81
2023/12/11 09:07:10;;;;;;;;;;;14.50;99.90;;;;;;5074984;28;19912;-79
2023/12/11 09:09:38;;;;;;;;;;;14.30;99.90;;;;;;5092670;28;19912;-79
2023/12/11 09:12:04;;;;;;;;;;;14.30;99.90;;;;;;5073948;28;19928;-81
2023/12/11 09:14:30;;;;;;;;;;;14.30;99.90;;;;;;5077491;28;19931;-78
2023/12/11 09:16:56;;;;;;;;;;;14.30;99.90;;;;;;5078977;28;19920;-80
2023/12/11 09:19:21;;;;;;;;;;;14.20;99.90;;;;;;5080092;28;20298;-80
2023/12/11 09:21:47;;;;;;;;;;;14.30;99.90;;;;;;5072167;28;20006;-81
2023/12/11 09:24:12;;;;;;;;;;;14.30;99.90;;;;;;5079832;28;19920;-80
2023/12/11 09:26:38;;;;;;;;;;;14.40;99.90;;;;;;5082378;28;20398;-79
2023/12/11 09:29:03;;;;;;;;;;;14.40;99.90;;;;;;5078299;28;20302;-81
2023/12/11 09:31:29;;;;;;;;;;;14.40;99.90;;;;;;5082762;28;19919;-82
2023/12/11 09:33:54;;;;;;;;;;;14.40;99.90;;;;;;5078078;28;19919;-79
2023/12/11 09:36:20;;;;;;;;;;;14.30;99.90;;;;;;5069353;28;19919;-79
2023/12/11 09:38:45;;;;;;;;;;;14.30;99.90;;;;;;5072400;28;20359;-79
2023/12/11 09:41:11;;;;;;;;;;;14.30;99.90;;;;;;5078747;28;19908;-81
2023/12/11 09:43:37;;;;;;;;;;;14.30;99.90;;;;;;5079948;28;19913;-81
2023/12/11 09:46:06;;;;;;;;;;;14.30;99.90;;;;;;5079971;28;19916;-82
2023/12/11 09:48:31;;;;;;;;;;;14.30;99.90;;;;;;5092415;28;19922;-80
2023/12/11 09:50:57;;;;;;;;;;;14.30;99.90;;;;;;5086863;28;19920;-82
2023/12/11 09:53:22;;;;;;;;;;;14.30;99.90;;;;;;5076787;28;19920;-79
2023/12/11 09:55:48;;;;;;;;;;;14.30;99.90;;;;;;5084037;28;19916;-80
2023/12/11 09:58:14;;;;;;;;;;;14.30;99.90;;;;;;5082957;28;19924;-81
2023/12/11 10:00:40;;;;;;;;;;;14.30;99.90;;;;;;5079812;28;20379;-81
2023/12/11 10:03:07;;;;;;;;;;;14.30;99.90;;;;;;5076896;28;19912;-81
2023/12/11 10:05:35;;;;;;;;;;;14.30;99.90;;;;;;5076339;28;20014;-81
2023/12/11 10:08:01;;;;;;;;;;;14.30;99.90;;;;;;5086566;28;20352;-82
2023/12/11 10:10:27;;;;;;;;;;;14.30;99.90;;;;;;5079299;28;19920;-81
2023/12/11 10:12:56;;;;;;;;;;;14.30;99.90;;;;;;5075455;28;19960;-79
2023/12/11 10:15:26;;;;;;;;;;;14.40;99.90;;;;;;5075521;28;20787;-79
2023/12/11 10:18:02;;;;;;;;;;;14.30;99.90;;;;;;5083665;28;19999;-82
2023/12/11 10:20:27;;;;;;;;;;;14.40;99.90;;;;;;5076253;28;20023;-77
2023/12/11 10:22:53;;;;;;;;;;;14.50;99.90;;;;;;5073941;28;20003;-83
2023/12/11 10:25:28;;;;;;;;;;;14.50;99.90;;;;;;5075472;28;20403;-76
2023/12/11 10:28:04;;;;;;;;;;;14.50;99.90;;;;;;5083535;28;19916;-76
2023/12/11 10:30:29;;;;;;;;;;;14.60;99.90;;;;;;5070814;28;20444;-76
2023/12/11 10:32:59;;;;;;;;;;;14.60;99.90;;;;;;5072428;28;19920;-79
2023/12/11 10:35:25;;;;;;;;;;;14.60;99.90;;;;;;5071017;28;19920;-81
2023/12/11 10:37:50;;;;;;;;;;;14.60;99.90;;;;;;5071896;28;20295;-83
2023/12/11 10:40:16;;;;;;;;;;;14.60;99.90;;;;;;5072224;28;20379;-76
2023/12/11 10:42:42;;;;;;;;;;;14.60;99.90;;;;;;5069196;28;19921;-76
2023/12/11 10:45:07;;;;;;;;;;;14.50;99.90;;;;;;5075242;28;19920;-77
2023/12/11 10:47:33;;;;;;;;;;;14.60;99.90;;;;;;5075740;28;19919;-83
2023/12/11 10:50:02;;;;;;;;;;;14.60;99.90;;;;;;5078607;28;20275;-83
2023/12/11 10:52:28;;;;;;;;;;;14.60;99.90;;;;;;5080167;28;19916;-83
2023/12/11 10:54:54;;;;;;;;;;;14.60;99.90;;;;;;5071795;28;19908;-77
2023/12/11 10:57:22;;;;;;;;;;;14.60;99.90;;;;;;5072075;28;19995;-78
2023/12/11 10:59:50;;;;;;;;;;;14.50;99.90;;;;;;5072409;28;19916;-85
2023/12/11 11:02:17;;;;;;;;;;;14.50;99.90;;;;;;5082983;28;19912;-88
2023/12/11 11:04:44;;;;;;;;;;;14.30;99.90;;;;;;5082867;28;20287;-91
2023/12/11 11:07:21;;;;;;;;;;;14.20;99.90;;;;;;5071324;28;19921;-78
2023/12/11 11:09:54;;;;;;;;;;;14.20;99.90;;;;;;5068836;28;20378;-77
2023/12/11 11:12:39;;;;;;;;;;;14.20;99.90;;;;;;5081471;28;19932;-82
2023/12/11 11:15:05;;;;;;;;;;;14.20;99.90;;;;;;5052763;28;20003;-81
2023/12/11 11:17:50;;;;;;;;;;;14.20;99.90;;;;;;5082481;28;20389;-77
2023/12/11 11:20:17;;;;;;;;;;;14.20;99.90;;;;;;5079951;28;19909;-77
2023/12/11 11:22:42;;;;;;;;;;;14.30;99.90;;;;;;5076903;28;20287;-76
2023/12/11 11:25:26;;;;;;;;;;;14.30;99.90;;;;;;5071855;28;19916;-77
2023/12/11 11:27:52;;;;;;;;;;;14.30;99.90;;;;;;5078048;28;19913;-82
2023/12/11 11:30:36;;;;;;;;;;;14.30;99.90;;;;;;5079048;28;19908;-81
2023/12/11 11:33:02;;;;;;;;;;;14.40;99.90;;;;;;5075296;28;19923;-76
2023/12/11 11:35:43;;;;;;;;;;;14.40;99.90;;;;;;5071097;28;19912;-82
2023/12/11 11:38:09;;;;;;;;;;;14.40;99.90;;;;;;5071143;28;19920;-83
2023/12/11 11:40:35;;;;;;;;;;;14.40;99.90;;;;;;5053274;28;19912;-84
2023/12/11 11:43:01;;;;;;;;;;;14.50;99.90;;;;;;5070940;28;19920;-81
2023/12/11 11:45:26;;;;;;;;;;;14.50;99.90;;;;;;5075886;28;19916;-77
2023/12/11 11:47:52;;;;;;;;;;;14.50;99.90;;;;;;5077093;28;19923;-75
2023/12/11 11:50:18;;;;;;;;;;;14.40;99.90;;;;;;5068670;28;19912;-76
2023/12/11 11:52:46;;;;;;;;;;;14.40;99.90;;;;;;5072276;28;19920;-85
2023/12/11 11:55:20;;;;;;;;;;;14.40;99.90;;;;;;5081658;28;20294;-84
2023/12/11 11:57:46;;;;;;;;;;;14.40;99.90;;;;;;5050675;28;19920;-85
2023/12/11 12:00:12;;;;;;;;;;;14.40;99.90;;;;;;5052528;28;19912;-75
2023/12/11 12:02:37;;;;;;;;;;;14.40;99.90;;;;;;5070186;28;19959;-76
2023/12/11 12:05:06;;;;;;;;;;;14.30;99.90;;;;;;5069527;28;19956;-84
2023/12/11 12:07:32;;;;;;;;;;;14.30;99.90;;;;;;5070325;28;20259;-86
2023/12/11 12:09:59;;;;;;;;;;;14.40;99.90;;;;;;5078703;28;19963;-75
2023/12/11 12:12:26;;;;;;;;;;;14.30;99.90;;;;;;5070413;28;19924;-76
2023/12/11 12:15:02;;;;;;;;;;;14.40;99.90;;;;;;5080883;28;20011;-77
2023/12/11 12:17:27;;;;;;;;;;;14.40;99.90;;;;;;5078832;28;19920;-90
2023/12/11 12:19:53;;;;;;;;;;;14.40;99.90;;;;;;5085595;28;19914;-89
2023/12/11 12:22:19;;;;;;;;;;;14.40;99.90;;;;;;5084371;28;19913;-89
2023/12/11 12:24:48;;;;;;;;;;;14.40;99.90;;;;;;5085128;28;19912;-78
2023/12/11 12:27:18;;;;;;;;;;;14.40;99.90;;;;;;5091752;28;19922;-77
2023/12/11 12:29:44;;;;;;;;;;;14.30;99.90;;;;;;5086285;28;19917;-80
2023/12/11 12:32:12;;;;;;;;;;;14.40;99.90;;;;;;5084086;28;19915;-92
2023/12/11 12:34:38;;;;;;;;;;;14.50;99.90;;;;;;5087914;28;19920;-88
2023/12/11 12:37:04;;;;;;;;;;;14.40;99.90;;;;;;5084965;28;19923;-79
2023/12/11 12:39:30;;;;;;;;;;;14.50;99.90;;;;;;5080541;28;19912;-78
2023/12/11 12:41:56;;;;;;;;;;;14.50;99.90;;;;;;5091089;28;19916;-76
2023/12/11 12:44:21;;;;;;;;;;;14.50;99.90;;;;;;5088923;28;19916;-82
2023/12/11 12:46:47;;;;;;;;;;;14.50;99.90;;;;;;5087851;28;19965;-93
2023/12/11 12:49:13;;;;;;;;;;;14.50;99.90;;;;;;5080282;28;19912;-78
2023/12/11 12:51:49;;;;;;;;;;;14.50;99.90;;;;;;5075648;28;19916;-90
2023/12/11 12:54:15;;;;;;;;;;;14.40;99.90;;;;;;5055988;28;19999;-77
2023/12/11 12:56:41;;;;;;;;;;;14.50;99.90;;;;;;5085468;28;19919;-89
2023/12/11 12:59:07;;;;;;;;;;;14.50;99.90;;;;;;5077042;28;20129;-88
2023/12/11 13:01:39;;;;;;;;;;;14.50;99.90;;;;;;5085685;28;19919;-78
2023/12/11 13:04:06;;;;;;;;;;;14.60;99.90;;;;;;5068569;28;19943;-78
2023/12/11 13:06:32;;;;;;;;;;;14.60;99.90;;;;;;5086986;28;19919;-83
2023/12/11 13:08:58;;;;;;;;;;;14.60;99.90;;;;;;5087238;28;19917;-79
2023/12/11 13:11:43;;;;;;;;;;;14.50;99.90;;;;;;5080131;28;20346;-85
2023/12/11 13:14:11;;;;;;;;;;;14.50;99.90;;;;;;5082385;28;19920;-86
2023/12/11 13:16:40;;;;;;;;;;;14.40;99.90;;;;;;5091735;28;19920;-79
2023/12/11 13:19:06;;;;;;;;;;;14.50;99.90;;;;;;5051881;28;19917;-87
2023/12/11 13:21:32;;;;;;;;;;;14.50;99.90;;;;;;5060324;28;20273;-83
2023/12/11 13:23:57;;;;;;;;;;;14.50;99.90;;;;;;5086059;28;20431;-92
2023/12/11 13:26:23;;;;;;;;;;;14.50;99.90;;;;;;5094781;28;19999;-88
2023/12/11 13:28:49;;;;;;;;;;;14.40;99.90;;;;;;5083290;28;19916;-81
2023/12/11 13:31:14;;;;;;;;;;;14.40;99.90;;;;;;5082570;28;20376;-80
2023/12/11 13:33:40;;;;;;;;;;;14.40;99.90;;;;;;5054295;28;19923;-80
2023/12/11 13:36:07;;;;;;;;;;;14.40;99.90;;;;;;5091965;28;19923;-90
2023/12/11 13:38:33;;;;;;;;;;;14.50;99.90;;;;;;5079629;28;19916;-90
2023/12/11 13:40:59;;;;;;;;;;;14.40;99.90;;;;;;5091399;28;19916;-81
2023/12/11 13:43:24;;;;;;;;;;;14.40;99.90;;;;;;5084107;28;19916;-85
2023/12/11 13:45:51;;;;;;;;;;;14.30;99.90;;;;;;5086229;28;20344;-82
2023/12/11 13:48:17;;;;;;;;;;;14.30;99.90;;;;;;5081700;28;19939;-85
2023/12/11 13:50:42;;;;;;;;;;;14.30;99.90;;;;;;5072709;28;20383;-90
2023/12/11 13:53:08;;;;;;;;;;;14.20;99.90;;;;;;5077395;28;19962;-88
2023/12/11 13:55:33;;;;;;;;;;;14.10;99.90;;;;;;5071604;28;19916;-83
2023/12/11 13:57:59;;;;;;;;;;;14.00;99.90;;;;;;5070781;28;20356;-84
2023/12/11 14:00:25;;;;;;;;;;;14.00;99.90;;;;;;5076906;28;19916;-94
2023/12/11 14:02:51;;;;;;;;;;;14.00;99.90;;;;;;5091239;28;19919;-91
2023/12/11 14:05:16;;;;;;;;;;;13.90;99.90;;;;;;5071999;28;19916;-86
2023/12/11 14:07:42;;;;;;;;;;;13.90;99.90;;;;;;5078367;28;20298;-82
2023/12/11 14:10:08;;;;;;;;;;;13.80;99.90;;;;;;5071530;28;20004;-82